GB-0356 weather

Chilsfold Farm Airstrip
England, United Kingdom

Public forecast

Using degrees Celsius for public forecast. Weather courtesy of forecast.io.

Closest aviation weather report (METAR) to Chilsfold Farm Airstrip

Closest report is Farnborough Airport, 14.7 nm (27.2 km) NNW. Retrieved 2020/02/19 03:20 UTC (0 seconds ago):

EGLF 190320Z AUTO 25009KT 9999 NCD 03/00 Q1019

Closest aviation forecast (TAF) to Chilsfold Farm Airstrip

Forecast is more than 12 hours old.

Closest forecast is Farnborough Airport, 14.7 nm (27.2 km) NNW. Retrieved 2016/04/18 18:00 UTC (4 years ago):

TAF EGLF 181658Z 1818/1821 26008KT 9999 BKN040